createdAt,value
2023-05-19T00:01:03.181Z,9.59
2023-05-19T00:03:30.551Z,9.61
2023-05-19T00:05:58.781Z,9.57
2023-05-19T00:08:26.653Z,9.56
2023-05-19T00:10:53.831Z,9.46
2023-05-19T00:13:21.918Z,9.41
2023-05-19T00:15:50.242Z,9.41
2023-05-19T00:18:17.388Z,9.46
2023-05-19T00:20:44.343Z,9.40
2023-05-19T00:23:11.663Z,9.44
2023-05-19T00:25:38.598Z,9.41
2023-05-19T00:28:05.490Z,9.45
2023-05-19T00:30:32.846Z,9.47
2023-05-19T00:33:00.408Z,9.45
2023-05-19T00:35:27.472Z,9.53
2023-05-19T00:37:59.114Z,9.58
2023-05-19T00:40:28.214Z,9.53
2023-05-19T00:42:57.194Z,9.44
2023-05-19T00:45:25.396Z,9.47
2023-05-19T00:47:53.198Z,9.55
2023-05-19T00:50:20.117Z,9.39
2023-05-19T00:52:51.309Z,9.36
2023-05-19T00:55:43.369Z,9.29
2023-05-19T00:58:14.143Z,9.25
2023-05-19T01:00:41.218Z,9.36
2023-05-19T01:03:09.162Z,9.45
2023-05-19T01:05:37.235Z,9.37
2023-05-19T01:08:05.826Z,9.34
2023-05-19T01:10:33.162Z,9.32
2023-05-19T01:13:02.188Z,9.37
2023-05-19T01:15:29.564Z,9.34
2023-05-19T01:18:12.335Z,9.30
2023-05-19T01:20:40.477Z,9.38
2023-05-19T01:23:46.088Z,9.29
2023-05-19T01:26:48.007Z,9.33
2023-05-19T01:29:26.203Z,9.22
2023-05-19T01:31:55.637Z,9.27
2023-05-19T01:34:25.540Z,9.17
2023-05-19T01:36:56.043Z,9.14
2023-05-19T01:39:25.225Z,9.22
2023-05-19T01:41:54.242Z,9.09
2023-05-19T01:44:23.173Z,9.04
2023-05-19T01:46:51.013Z,8.81
2023-05-19T01:49:17.913Z,8.75
2023-05-19T01:51:45.956Z,8.72
2023-05-19T01:54:12.741Z,8.82
2023-05-19T01:56:53.244Z,8.88
2023-05-19T02:00:09.329Z,8.81
2023-05-19T02:03:08.317Z,8.74
2023-05-19T02:05:44.995Z,8.52
2023-05-19T02:08:21.230Z,8.52
2023-05-19T02:11:00.815Z,8.40
2023-05-19T02:13:34.226Z,8.48
2023-05-19T02:16:05.386Z,8.46
2023-05-19T02:18:35.358Z,8.31
2023-05-19T02:21:02.894Z,8.32
2023-05-19T02:23:30.979Z,8.23
2023-05-19T02:26:01.274Z,8.16
2023-05-19T02:28:28.247Z,8.11
2023-05-19T02:30:55.670Z,8.10
2023-05-19T02:33:22.667Z,8.15
2023-05-19T02:35:49.657Z,8.29
2023-05-19T02:38:16.471Z,8.41
2023-05-19T02:40:44.294Z,8.37
2023-05-19T02:43:11.314Z,8.21
2023-05-19T02:45:38.221Z,8.15
2023-05-19T02:48:06.309Z,8.17
2023-05-19T02:50:33.439Z,8.03
2023-05-19T02:53:00.454Z,8.06
2023-05-19T02:55:27.536Z,7.97
2023-05-19T02:57:54.530Z,8.09
2023-05-19T03:03:39.370Z,8.30
2023-05-19T03:06:06.890Z,8.35
2023-05-19T03:08:33.683Z,8.33
2023-05-19T03:11:01.307Z,8.43
2023-05-19T03:13:31.961Z,8.43
2023-05-19T03:16:00.799Z,8.33
2023-05-19T03:18:27.824Z,8.36
2023-05-19T03:20:54.888Z,8.48
2023-05-19T03:23:22.895Z,8.43
2023-05-19T03:25:50.209Z,8.36
2023-05-19T03:28:17.166Z,8.35
2023-05-19T03:30:46.356Z,8.39
2023-05-19T03:33:18.961Z,8.43
2023-05-19T03:35:47.304Z,8.53
2023-05-19T03:38:15.366Z,8.61
2023-05-19T03:40:51.229Z,8.52
2023-05-19T03:43:18.122Z,8.37
2023-05-19T03:45:52.372Z,8.43
2023-05-19T03:48:48.476Z,8.41
2023-05-19T03:51:33.993Z,8.61
2023-05-19T03:54:11.554Z,8.62
2023-05-19T03:56:44.240Z,8.50
2023-05-19T03:59:11.102Z,8.47
2023-05-19T04:01:41.333Z,8.48
2023-05-19T04:04:33.226Z,8.42
2023-05-19T04:07:00.815Z,8.31
2023-05-19T04:09:27.626Z,8.22
2023-05-19T04:11:56.287Z,8.20
2023-05-19T04:14:24.373Z,8.08
2023-05-19T04:16:51.211Z,8.10
2023-05-19T04:19:19.071Z,8.12
2023-05-19T04:21:46.242Z,8.11
2023-05-19T04:24:13.108Z,8.20
2023-05-19T04:26:40.878Z,8.23
2023-05-19T04:29:07.821Z,8.37
2023-05-19T04:31:35.408Z,8.44
2023-05-19T04:34:04.622Z,8.49
2023-05-19T04:36:35.334Z,8.51
2023-05-19T04:39:04.456Z,8.51
2023-05-19T04:41:31.371Z,8.60
2023-05-19T04:43:59.921Z,8.66
2023-05-19T04:46:27.362Z,8.69
2023-05-19T04:48:55.519Z,8.61
2023-05-19T04:51:25.216Z,8.68
2023-05-19T04:53:52.051Z,8.82
2023-05-19T04:56:45.308Z,8.91
2023-05-19T04:59:12.916Z,8.95
2023-05-19T05:01:43.440Z,9.05
2023-05-19T05:04:13.405Z,9.08
2023-05-19T05:06:41.194Z,9.06
2023-05-19T05:09:09.304Z,9.11
2023-05-19T05:11:37.014Z,9.28
2023-05-19T05:14:04.545Z,9.32
2023-05-19T05:16:37.391Z,9.26
2023-05-19T05:19:05.848Z,9.28
2023-05-19T05:21:33.847Z,9.32
2023-05-19T05:24:02.355Z,9.33
2023-05-19T05:26:34.187Z,9.32
2023-05-19T05:29:02.728Z,9.37
2023-05-19T05:31:30.150Z,9.37
2023-05-19T05:33:58.011Z,9.49
2023-05-19T05:36:28.544Z,9.57
2023-05-19T05:41:47.373Z,9.64
2023-05-19T05:44:14.393Z,9.71
2023-05-19T05:46:44.230Z,9.76
2023-05-19T05:49:13.361Z,9.77
2023-05-19T05:51:54.290Z,9.79
2023-05-19T05:54:38.451Z,9.86
2023-05-19T05:57:10.264Z,9.80
2023-05-19T05:59:38.447Z,9.87
2023-05-19T06:02:05.628Z,9.93
2023-05-19T06:04:33.485Z,10.05
2023-05-19T06:07:01.319Z,10.08
2023-05-19T06:09:32.094Z,10.24
2023-05-19T06:12:25.295Z,10.39
2023-05-19T06:14:54.437Z,10.50
2023-05-19T06:17:40.260Z,10.53
2023-05-19T06:20:08.071Z,10.59
2023-05-19T06:22:35.529Z,10.61
2023-05-19T06:25:03.326Z,10.62
2023-05-19T06:27:31.185Z,10.60
2023-05-19T06:29:59.531Z,10.68
2023-05-19T06:32:28.263Z,10.63
2023-05-19T06:34:58.058Z,10.69
2023-05-19T06:37:25.787Z,10.76
2023-05-19T06:39:55.120Z,10.84
2023-05-19T06:42:22.800Z,10.89
2023-05-19T06:45:08.158Z,10.97
2023-05-19T06:47:36.294Z,11.09
2023-05-19T06:50:03.694Z,11.15
2023-05-19T06:52:34.271Z,11.14
2023-05-19T06:55:02.751Z,11.36
2023-05-19T06:57:32.311Z,11.54
2023-05-19T07:00:01.604Z,11.45
2023-05-19T07:02:28.734Z,11.46
2023-05-19T07:04:55.850Z,11.53
2023-05-19T07:07:25.212Z,11.52
2023-05-19T07:09:53.120Z,11.48
2023-05-19T07:12:23.249Z,11.38
2023-05-19T07:14:53.113Z,11.32
2023-05-19T07:17:20.985Z,11.23
2023-05-19T07:19:48.907Z,11.28
2023-05-19T07:22:16.245Z,11.34
2023-05-19T07:24:44.412Z,11.52
2023-05-19T07:27:13.225Z,11.62
2023-05-19T07:29:43.728Z,11.60
2023-05-19T07:32:11.365Z,11.78
2023-05-19T07:34:40.616Z,12.08
2023-05-19T07:37:07.707Z,12.16
2023-05-19T07:39:36.089Z,12.29
2023-05-19T07:42:03.911Z,12.24
2023-05-19T07:44:32.268Z,12.37
2023-05-19T07:46:59.056Z,12.47
2023-05-19T07:49:55.436Z,12.57
2023-05-19T07:52:25.756Z,12.49
2023-05-19T07:54:52.526Z,12.55
2023-05-19T07:57:19.528Z,12.52
2023-05-19T07:59:46.293Z,12.31
2023-05-19T08:02:14.493Z,12.29
2023-05-19T08:05:10.317Z,12.21
2023-05-19T08:07:37.474Z,12.19
2023-05-19T08:10:04.635Z,12.09
2023-05-19T08:12:31.817Z,12.14
2023-05-19T08:15:01.009Z,12.19
2023-05-19T08:17:28.410Z,12.16
2023-05-19T08:20:20.374Z,12.35
2023-05-19T08:22:49.384Z,12.36
2023-05-19T08:25:16.257Z,12.46
2023-05-19T08:27:43.181Z,12.52
2023-05-19T08:30:11.370Z,12.60
2023-05-19T08:32:38.733Z,12.68
2023-05-19T08:35:05.860Z,12.67
2023-05-19T08:37:36.050Z,12.62
2023-05-19T08:40:03.114Z,12.54
2023-05-19T08:42:30.020Z,12.50
2023-05-19T08:44:56.845Z,12.64
2023-05-19T08:47:23.773Z,12.73
2023-05-19T08:49:54.346Z,12.94
2023-05-19T08:52:39.648Z,12.84
2023-05-19T08:58:11.845Z,12.94
2023-05-19T09:00:39.073Z,12.88
2023-05-19T09:03:18.170Z,12.91
2023-05-19T09:05:52.278Z,12.79
2023-05-19T09:08:19.250Z,12.90
2023-05-19T09:10:46.717Z,13.05
2023-05-19T09:13:15.257Z,13.15
2023-05-19T09:15:42.513Z,13.07
2023-05-19T09:18:13.319Z,13.18
2023-05-19T09:20:42.099Z,13.33
2023-05-19T09:23:17.741Z,13.45
2023-05-19T09:25:52.239Z,13.71
2023-05-19T09:28:29.269Z,13.96
2023-05-19T09:31:08.683Z,13.93
2023-05-19T09:33:37.200Z,13.91
2023-05-19T09:36:04.827Z,14.08
2023-05-19T09:38:33.300Z,14.14
2023-05-19T09:41:01.120Z,14.18
2023-05-19T09:43:34.322Z,14.19
2023-05-19T09:46:07.540Z,14.31
2023-05-19T09:48:35.722Z,14.27
2023-05-19T09:51:04.020Z,14.33
2023-05-19T09:53:31.951Z,14.20
2023-05-19T09:55:58.990Z,14.21
2023-05-19T09:58:26.682Z,14.39
2023-05-19T10:00:54.077Z,14.42
2023-05-19T10:03:25.715Z,14.43
2023-05-19T10:05:53.643Z,14.52
2023-05-19T10:08:20.776Z,14.61
2023-05-19T10:10:48.509Z,14.87
2023-05-19T10:13:16.352Z,15.08
2023-05-19T10:15:57.288Z,15.18
2023-05-19T10:18:27.333Z,14.97
2023-05-19T10:20:54.533Z,14.97
2023-05-19T10:23:21.395Z,14.99
2023-05-19T10:25:49.711Z,15.11
2023-05-19T10:28:18.560Z,15.08
2023-05-19T10:30:53.211Z,15.07
2023-05-19T10:33:23.865Z,15.05
2023-05-19T10:36:06.040Z,14.90
2023-05-19T10:38:42.192Z,14.85
2023-05-19T10:41:31.777Z,14.86
2023-05-19T10:44:33.652Z,14.92
2023-05-19T10:47:06.984Z,14.85
2023-05-19T10:49:36.873Z,14.98
2023-05-19T10:52:22.371Z,14.97
2023-05-19T10:54:49.697Z,14.82
2023-05-19T10:57:20.833Z,14.91
2023-05-19T10:59:51.352Z,14.83
2023-05-19T11:02:43.828Z,14.84
2023-05-19T11:05:16.401Z,14.84
2023-05-19T11:07:56.442Z,14.75
2023-05-19T11:10:25.041Z,14.90
2023-05-19T11:12:52.421Z,14.94
2023-05-19T11:15:26.489Z,15.00
2023-05-19T11:17:54.634Z,15.19
2023-05-19T11:20:25.948Z,15.21
2023-05-19T11:23:05.616Z,15.28
2023-05-19T11:25:49.946Z,15.36
2023-05-19T11:28:42.973Z,15.37
2023-05-19T11:31:11.434Z,15.35
2023-05-19T11:33:41.303Z,15.50
2023-05-19T11:36:08.649Z,15.48
2023-05-19T11:39:02.358Z,15.37
2023-05-19T11:41:29.187Z,15.33
2023-05-19T11:43:55.968Z,15.32
2023-05-19T11:46:48.559Z,15.28
2023-05-19T11:49:15.838Z,15.32
2023-05-19T11:51:46.300Z,15.48
2023-05-19T11:54:38.311Z,15.74
2023-05-19T11:57:08.789Z,15.96
2023-05-19T12:02:29.370Z,16.29
2023-05-19T12:04:56.200Z,16.30
2023-05-19T12:07:24.459Z,16.25
2023-05-19T12:09:53.414Z,16.28
2023-05-19T12:12:22.617Z,16.46
2023-05-19T12:14:51.483Z,16.50
2023-05-19T12:17:20.295Z,16.56
2023-05-19T12:19:49.437Z,16.32
2023-05-19T12:22:21.428Z,16.17
2023-05-19T12:24:49.399Z,16.13
2023-05-19T12:27:21.486Z,16.05
2023-05-19T12:29:51.727Z,16.11
2023-05-19T12:32:19.163Z,16.06
2023-05-19T12:34:46.571Z,16.07
2023-05-19T12:37:13.910Z,15.99
2023-05-19T12:39:42.666Z,15.99
2023-05-19T12:42:11.287Z,15.95
2023-05-19T12:44:38.960Z,16.19
2023-05-19T12:47:06.803Z,16.26
2023-05-19T12:49:34.242Z,16.16
2023-05-19T12:52:05.187Z,16.23
2023-05-19T12:54:34.150Z,16.23
2023-05-19T12:57:01.752Z,16.33
2023-05-19T12:59:38.417Z,16.40
2023-05-19T13:02:06.608Z,16.45
2023-05-19T13:04:33.526Z,16.46
2023-05-19T13:07:00.376Z,16.59
2023-05-19T13:09:27.114Z,16.62
2023-05-19T13:11:54.205Z,16.62
2023-05-19T13:14:21.038Z,16.65
2023-05-19T13:16:47.956Z,16.78
2023-05-19T13:19:25.055Z,16.89
2023-05-19T13:21:52.762Z,17.02
2023-05-19T13:24:19.580Z,17.11
2023-05-19T13:26:46.399Z,17.14
2023-05-19T13:29:13.232Z,17.08
2023-05-19T13:31:40.670Z,17.03
2023-05-19T13:34:07.689Z,16.96
2023-05-19T13:36:34.448Z,16.93
2023-05-19T13:39:01.757Z,16.99
2023-05-19T13:41:28.520Z,17.01
2023-05-19T13:43:59.296Z,16.95
2023-05-19T13:46:33.114Z,17.03
2023-05-19T13:49:10.710Z,17.11
2023-05-19T13:51:37.526Z,17.30
2023-05-19T13:54:05.297Z,17.35
2023-05-19T13:56:32.202Z,17.24
2023-05-19T13:58:59.407Z,17.24
2023-05-19T14:01:26.212Z,17.15
2023-05-19T14:03:53.332Z,17.28
2023-05-19T14:06:20.302Z,17.34
2023-05-19T14:08:47.197Z,17.36
2023-05-19T14:11:20.669Z,17.33
2023-05-19T14:13:52.554Z,17.23
2023-05-19T14:16:19.957Z,17.21
2023-05-19T14:18:47.270Z,17.15
2023-05-19T14:21:14.315Z,17.08
2023-05-19T14:23:41.343Z,17.16
2023-05-19T14:26:09.338Z,17.15
2023-05-19T14:28:36.720Z,17.04
2023-05-19T14:31:04.348Z,17.04
2023-05-19T14:33:38.115Z,17.07
2023-05-19T14:36:07.958Z,17.16
2023-05-19T14:38:35.221Z,17.20
2023-05-19T14:41:02.329Z,17.10
2023-05-19T14:43:29.226Z,17.17
2023-05-19T14:45:57.149Z,17.15
2023-05-19T14:48:24.126Z,17.09
2023-05-19T14:50:52.820Z,17.07
2023-05-19T14:53:19.624Z,17.06
2023-05-19T14:55:49.793Z,17.04
2023-05-19T14:58:27.434Z,17.02
2023-05-19T15:00:58.103Z,17.01
2023-05-19T15:03:25.122Z,17.01
2023-05-19T15:05:52.115Z,16.99
2023-05-19T15:08:19.073Z,16.99
2023-05-19T15:10:49.026Z,17.03
2023-05-19T15:13:16.783Z,17.07
2023-05-19T15:15:43.653Z,16.98
2023-05-19T15:18:10.446Z,16.98
2023-05-19T15:20:38.316Z,16.95
2023-05-19T15:23:05.133Z,16.87
2023-05-19T15:25:31.999Z,16.87
2023-05-19T15:27:58.837Z,16.92
2023-05-19T15:30:25.653Z,16.92
2023-05-19T15:32:52.423Z,16.89
2023-05-19T15:35:20.258Z,16.90
2023-05-19T15:37:47.018Z,16.88
2023-05-19T15:40:14.091Z,16.93
2023-05-19T15:42:40.931Z,17.00
2023-05-19T15:45:10.095Z,16.98
2023-05-19T15:47:37.017Z,16.97
2023-05-19T15:50:03.994Z,16.96
2023-05-19T15:52:30.979Z,16.98
2023-05-19T15:54:59.715Z,16.97
2023-05-19T15:57:26.587Z,16.95
2023-05-19T15:59:53.512Z,16.95
2023-05-19T16:02:21.815Z,17.05
2023-05-19T16:05:15.788Z,16.96
2023-05-19T16:07:43.769Z,16.94
2023-05-19T16:10:10.722Z,16.87
2023-05-19T16:12:37.629Z,16.85
2023-05-19T16:15:05.123Z,16.84
2023-05-19T16:17:31.957Z,16.90
2023-05-19T16:19:59.395Z,16.87
2023-05-19T16:22:26.784Z,16.86
2023-05-19T16:24:53.518Z,16.82
2023-05-19T16:27:20.964Z,16.83
2023-05-19T16:29:48.764Z,16.81
2023-05-19T16:32:15.764Z,16.75
2023-05-19T16:34:43.720Z,16.80
2023-05-19T16:37:10.716Z,16.67
2023-05-19T16:42:29.799Z,16.49
2023-05-19T16:44:56.588Z,16.55
2023-05-19T16:47:27.366Z,16.46
2023-05-19T16:49:55.687Z,16.48
2023-05-19T16:52:24.354Z,16.36
2023-05-19T16:54:51.776Z,16.40
2023-05-19T16:57:20.678Z,16.40
2023-05-19T16:59:50.791Z,16.40
2023-05-19T17:02:17.676Z,16.35
2023-05-19T17:07:35.876Z,16.27
2023-05-19T17:10:04.054Z,16.31
2023-05-19T17:12:30.975Z,16.32
2023-05-19T17:14:57.841Z,16.20
2023-05-19T17:17:24.671Z,16.19
2023-05-19T17:19:51.648Z,16.19
2023-05-19T17:22:18.783Z,16.12
2023-05-19T17:24:46.315Z,16.06
2023-05-19T17:27:14.819Z,16.09
2023-05-19T17:29:41.673Z,16.02
2023-05-19T17:32:09.692Z,15.96
2023-05-19T17:34:37.670Z,15.98
2023-05-19T17:37:05.322Z,16.03
2023-05-19T17:39:32.156Z,16.01
2023-05-19T17:41:59.369Z,15.97
2023-05-19T17:44:26.150Z,15.95
2023-05-19T17:46:53.078Z,15.88
2023-05-19T17:49:22.332Z,15.88
2023-05-19T17:51:49.419Z,15.82
2023-05-19T17:54:41.528Z,15.75
2023-05-19T17:57:12.930Z,15.74
2023-05-19T17:59:42.199Z,15.74
2023-05-19T18:02:09.600Z,15.79
2023-05-19T18:04:36.675Z,15.71
2023-05-19T18:07:08.172Z,15.75
2023-05-19T18:09:37.786Z,15.80
2023-05-19T18:12:05.737Z,15.72
2023-05-19T18:14:32.518Z,15.68
2023-05-19T18:17:00.490Z,15.66
2023-05-19T18:19:28.156Z,15.57
2023-05-19T18:21:55.053Z,15.57
2023-05-19T18:24:22.521Z,15.45
2023-05-19T18:26:49.341Z,15.35
2023-05-19T18:29:16.712Z,15.35
2023-05-19T18:31:44.317Z,15.27
2023-05-19T18:34:11.696Z,15.19
2023-05-19T18:36:38.553Z,15.33
2023-05-19T18:39:06.315Z,15.25
2023-05-19T18:41:35.637Z,15.24
2023-05-19T18:44:03.289Z,15.12
2023-05-19T18:46:30.297Z,15.02
2023-05-19T18:48:57.173Z,15.03
2023-05-19T18:51:50.465Z,14.90
2023-05-19T18:54:20.713Z,14.95
2023-05-19T18:56:47.727Z,14.90
2023-05-19T18:59:14.574Z,14.85
2023-05-19T19:01:41.859Z,14.72
2023-05-19T19:04:09.454Z,14.63
2023-05-19T19:06:37.689Z,14.68
2023-05-19T19:09:04.697Z,14.67
2023-05-19T19:11:31.914Z,14.68
2023-05-19T19:13:58.818Z,14.60
2023-05-19T19:16:25.768Z,14.53
2023-05-19T19:18:53.356Z,14.53
2023-05-19T19:21:20.392Z,14.36
2023-05-19T19:23:47.235Z,14.50
2023-05-19T19:26:13.993Z,14.45
2023-05-19T19:28:42.051Z,14.29
2023-05-19T19:31:08.941Z,14.12
2023-05-19T19:33:35.803Z,14.07
2023-05-19T19:36:02.854Z,14.02
2023-05-19T19:38:29.682Z,13.94
2023-05-19T19:40:57.329Z,14.01
2023-05-19T19:43:24.706Z,13.90
2023-05-19T19:46:02.177Z,13.73
2023-05-19T19:48:57.021Z,13.67
2023-05-19T19:51:29.376Z,13.72
2023-05-19T19:53:56.162Z,13.47
2023-05-19T19:56:23.992Z,13.45
2023-05-19T19:58:51.103Z,13.49
2023-05-19T20:01:19.081Z,13.46
2023-05-19T20:03:46.335Z,13.34
2023-05-19T20:06:15.416Z,13.37
2023-05-19T20:09:07.442Z,13.21
2023-05-19T20:11:39.425Z,13.26
2023-05-19T20:14:07.006Z,13.29
2023-05-19T20:16:33.919Z,13.12
2023-05-19T20:19:00.847Z,12.80
2023-05-19T20:21:27.726Z,12.86
2023-05-19T20:23:55.406Z,12.75
2023-05-19T20:26:23.328Z,12.67
2023-05-19T20:28:50.330Z,12.75
2023-05-19T20:31:17.276Z,12.57
2023-05-19T20:33:44.140Z,12.68
2023-05-19T20:36:11.109Z,12.66
2023-05-19T20:38:37.858Z,12.55
2023-05-19T20:41:04.755Z,12.46
2023-05-19T20:43:32.395Z,12.42
2023-05-19T20:46:00.179Z,12.37
2023-05-19T20:48:27.210Z,12.42
2023-05-19T20:50:55.441Z,12.33
2023-05-19T20:53:23.907Z,12.36
2023-05-19T20:55:50.707Z,12.33
2023-05-19T20:58:18.383Z,12.39
2023-05-19T21:00:45.161Z,12.43
2023-05-19T21:03:12.126Z,12.30
2023-05-19T21:05:39.967Z,12.56
2023-05-19T21:08:08.762Z,12.76
2023-05-19T21:10:35.641Z,12.88
2023-05-19T21:13:03.018Z,12.82
2023-05-19T21:15:30.933Z,12.45
2023-05-19T21:17:59.781Z,12.17
2023-05-19T21:20:26.695Z,12.06
2023-05-19T21:22:53.726Z,11.93
2023-05-19T21:25:20.811Z,11.83
2023-05-19T21:27:47.597Z,11.82
2023-05-19T21:30:14.527Z,11.83
2023-05-19T21:32:42.503Z,11.89
2023-05-19T21:35:09.402Z,11.83
2023-05-19T21:37:37.807Z,11.65
2023-05-19T21:40:05.389Z,11.62
2023-05-19T21:42:32.217Z,11.60
2023-05-19T21:45:00.389Z,11.54
2023-05-19T21:47:27.329Z,11.59
2023-05-19T21:49:57.322Z,11.48
2023-05-19T21:52:27.770Z,11.44
2023-05-19T21:54:54.654Z,11.27
2023-05-19T21:57:22.381Z,11.42
2023-05-19T21:59:49.299Z,11.43
2023-05-19T22:02:45.463Z,11.42
2023-05-19T22:05:12.913Z,11.55
2023-05-19T22:07:39.835Z,11.65
2023-05-19T22:10:07.043Z,11.77
2023-05-19T22:12:33.858Z,11.90
2023-05-19T22:15:00.724Z,11.99
2023-05-19T22:17:29.475Z,11.71
2023-05-19T22:19:57.779Z,11.75
2023-05-19T22:22:50.433Z,11.32
2023-05-19T22:25:17.921Z,11.29
2023-05-19T22:27:44.873Z,11.30
2023-05-19T22:30:11.901Z,11.16
2023-05-19T22:32:38.794Z,11.17
2023-05-19T22:35:05.828Z,11.17
2023-05-19T22:37:32.953Z,11.09
2023-05-19T22:40:01.717Z,11.14
2023-05-19T22:42:28.542Z,11.07
2023-05-19T22:44:56.392Z,10.93
2023-05-19T22:47:23.946Z,10.87
2023-05-19T22:49:52.055Z,10.83
2023-05-19T22:52:19.778Z,10.74
2023-05-19T22:54:49.927Z,10.64
2023-05-19T22:57:18.455Z,10.61
2023-05-19T22:59:45.383Z,10.47
2023-05-19T23:02:37.444Z,10.61
2023-05-19T23:05:04.773Z,10.52
2023-05-19T23:07:33.751Z,10.43
2023-05-19T23:10:00.551Z,10.41
2023-05-19T23:12:27.869Z,10.42
2023-05-19T23:14:55.010Z,10.44
2023-05-19T23:17:21.852Z,10.49
2023-05-19T23:19:48.766Z,10.53
2023-05-19T23:22:16.455Z,10.57
2023-05-19T23:24:43.810Z,10.54
2023-05-19T23:27:11.474Z,10.60
2023-05-19T23:29:38.370Z,10.55
2023-05-19T23:32:05.833Z,10.60
2023-05-19T23:34:32.773Z,10.71
2023-05-19T23:36:59.657Z,10.54
2023-05-19T23:39:26.571Z,10.59
2023-05-19T23:41:54.002Z,10.49
2023-05-19T23:44:21.026Z,10.33
2023-05-19T23:46:47.952Z,10.45
2023-05-19T23:49:39.826Z,10.30
2023-05-19T23:52:06.939Z,10.12
2023-05-19T23:54:33.750Z,10.08
2023-05-19T23:57:03.406Z,10.07
2023-05-19T23:59:30.359Z,10.02
